sensor_id;sensor_type;location;lat;lon;timestamp;temperature;humidity
20102;DHT22;10210;52.284;9.892;2023-07-09T00:00:17;27.20;93.30
20102;DHT22;10210;52.284;9.892;2023-07-09T00:02:44;27.10;93.80
20102;DHT22;10210;52.284;9.892;2023-07-09T00:05:15;27.10;93.30
20102;DHT22;10210;52.284;9.892;2023-07-09T00:07:44;27.10;93.70
20102;DHT22;10210;52.284;9.892;2023-07-09T00:10:18;27.00;93.50
20102;DHT22;10210;52.284;9.892;2023-07-09T00:12:46;27.00;93.80
20102;DHT22;10210;52.284;9.892;2023-07-09T00:15:14;27.00;93.70
20102;DHT22;10210;52.284;9.892;2023-07-09T00:17:42;26.90;93.70
20102;DHT22;10210;52.284;9.892;2023-07-09T00:20:14;26.90;93.70
20102;DHT22;10210;52.284;9.892;2023-07-09T00:22:42;26.90;94.10
20102;DHT22;10210;52.284;9.892;2023-07-09T00:25:13;26.90;93.80
20102;DHT22;10210;52.284;9.892;2023-07-09T00:27:42;26.80;93.70
20102;DHT22;10210;52.284;9.892;2023-07-09T00:30:20;26.80;93.80
20102;DHT22;10210;52.284;9.892;2023-07-09T00:32:49;26.80;94.30
20102;DHT22;10210;52.284;9.892;2023-07-09T00:35:17;26.70;93.90
20102;DHT22;10210;52.284;9.892;2023-07-09T00:37:45;26.70;93.90
20102;DHT22;10210;52.284;9.892;2023-07-09T00:40:21;26.70;94.00
20102;DHT22;10210;52.284;9.892;2023-07-09T00:42:49;26.60;94.30
20102;DHT22;10210;52.284;9.892;2023-07-09T00:45:23;26.60;94.10
20102;DHT22;10210;52.284;9.892;2023-07-09T00:47:59;26.50;94.20
20102;DHT22;10210;52.284;9.892;2023-07-09T00:50:37;26.50;94.60
20102;DHT22;10210;52.284;9.892;2023-07-09T00:53:15;26.40;94.60
20102;DHT22;10210;52.284;9.892;2023-07-09T00:55:52;26.40;94.70
20102;DHT22;10210;52.284;9.892;2023-07-09T00:58:24;26.40;94.50
20102;DHT22;10210;52.284;9.892;2023-07-09T01:00:56;26.40;94.30
20102;DHT22;10210;52.284;9.892;2023-07-09T01:03:47;26.40;94.50
20102;DHT22;10210;52.284;9.892;2023-07-09T01:06:20;26.40;94.80
20102;DHT22;10210;52.284;9.892;2023-07-09T01:08:55;26.30;94.50
20102;DHT22;10210;52.284;9.892;2023-07-09T01:11:22;26.20;94.40
20102;DHT22;10210;52.284;9.892;2023-07-09T01:13:49;26.20;94.40
20102;DHT22;10210;52.284;9.892;2023-07-09T01:16:23;26.20;94.50
20102;DHT22;10210;52.284;9.892;2023-07-09T01:18:52;26.10;94.70
20102;DHT22;10210;52.284;9.892;2023-07-09T01:21:19;26.10;94.50
20102;DHT22;10210;52.284;9.892;2023-07-09T01:23:47;26.10;94.90
20102;DHT22;10210;52.284;9.892;2023-07-09T01:26:18;26.00;94.60
20102;DHT22;10210;52.284;9.892;2023-07-09T01:28:47;26.00;94.80
20102;DHT22;10210;52.284;9.892;2023-07-09T01:31:15;26.00;94.60
20102;DHT22;10210;52.284;9.892;2023-07-09T01:33:42;25.90;94.70
20102;DHT22;10210;52.284;9.892;2023-07-09T01:36:11;25.90;94.70
20102;DHT22;10210;52.284;9.892;2023-07-09T01:38:40;25.80;94.70
20102;DHT22;10210;52.284;9.892;2023-07-09T01:41:06;25.70;94.80
20102;DHT22;10210;52.284;9.892;2023-07-09T01:43:34;25.70;95.20
20102;DHT22;10210;52.284;9.892;2023-07-09T01:46:00;25.70;95.10
20102;DHT22;10210;52.284;9.892;2023-07-09T01:48:27;25.70;94.90
20102;DHT22;10210;52.284;9.892;2023-07-09T01:50:53;25.60;94.90
20102;DHT22;10210;52.284;9.892;2023-07-09T01:53:22;25.50;95.00
20102;DHT22;10210;52.284;9.892;2023-07-09T01:55:51;25.50;95.20
20102;DHT22;10210;52.284;9.892;2023-07-09T01:58:17;25.50;95.00
20102;DHT22;10210;52.284;9.892;2023-07-09T02:00:43;25.40;95.10
20102;DHT22;10210;52.284;9.892;2023-07-09T02:03:10;25.40;95.10
20102;DHT22;10210;52.284;9.892;2023-07-09T02:05:36;25.30;95.10
20102;DHT22;10210;52.284;9.892;2023-07-09T02:08:03;25.30;95.10
20102;DHT22;10210;52.284;9.892;2023-07-09T02:10:29;25.30;95.10
20102;DHT22;10210;52.284;9.892;2023-07-09T02:12:54;25.20;95.10
20102;DHT22;10210;52.284;9.892;2023-07-09T02:15:20;25.10;95.20
20102;DHT22;10210;52.284;9.892;2023-07-09T02:17:46;25.10;95.40
20102;DHT22;10210;52.284;9.892;2023-07-09T02:20:13;25.10;95.50
20102;DHT22;10210;52.284;9.892;2023-07-09T02:22:40;25.10;95.60
20102;DHT22;10210;52.284;9.892;2023-07-09T02:25:07;25.10;95.60
20102;DHT22;10210;52.284;9.892;2023-07-09T02:27:34;25.10;95.60
20102;DHT22;10210;52.284;9.892;2023-07-09T02:30:01;25.10;95.70
20102;DHT22;10210;52.284;9.892;2023-07-09T02:32:27;25.10;95.60
20102;DHT22;10210;52.284;9.892;2023-07-09T02:34:54;25.00;95.60
20102;DHT22;10210;52.284;9.892;2023-07-09T02:37:25;25.00;95.60
20102;DHT22;10210;52.284;9.892;2023-07-09T02:39:52;25.00;95.80
20102;DHT22;10210;52.284;9.892;2023-07-09T02:42:19;24.90;95.50
20102;DHT22;10210;52.284;9.892;2023-07-09T02:44:46;24.80;95.60
20102;DHT22;10210;52.284;9.892;2023-07-09T02:47:13;24.70;95.60
20102;DHT22;10210;52.284;9.892;2023-07-09T02:49:39;24.70;95.80
20102;DHT22;10210;52.284;9.892;2023-07-09T02:52:05;24.60;95.80
20102;DHT22;10210;52.284;9.892;2023-07-09T02:54:32;24.50;95.90
20102;DHT22;10210;52.284;9.892;2023-07-09T02:56:59;24.50;96.00
20102;DHT22;10210;52.284;9.892;2023-07-09T02:59:25;24.50;96.10
20102;DHT22;10210;52.284;9.892;2023-07-09T03:01:52;24.40;96.00
20102;DHT22;10210;52.284;9.892;2023-07-09T03:04:18;24.40;96.10
20102;DHT22;10210;52.284;9.892;2023-07-09T03:06:46;24.30;96.10
20102;DHT22;10210;52.284;9.892;2023-07-09T03:09:12;24.30;96.20
20102;DHT22;10210;52.284;9.892;2023-07-09T03:11:38;24.20;96.20
20102;DHT22;10210;52.284;9.892;2023-07-09T03:14:04;24.20;96.20
20102;DHT22;10210;52.284;9.892;2023-07-09T03:16:33;24.10;96.30
20102;DHT22;10210;52.284;9.892;2023-07-09T03:18:59;24.10;96.70
20102;DHT22;10210;52.284;9.892;2023-07-09T03:21:27;24.00;96.40
20102;DHT22;10210;52.284;9.892;2023-07-09T03:23:54;24.00;96.70
20102;DHT22;10210;52.284;9.892;2023-07-09T03:26:21;23.90;96.70
20102;DHT22;10210;52.284;9.892;2023-07-09T03:28:47;23.90;96.70
20102;DHT22;10210;52.284;9.892;2023-07-09T03:31:13;23.90;96.70
20102;DHT22;10210;52.284;9.892;2023-07-09T03:33:38;23.90;96.80
20102;DHT22;10210;52.284;9.892;2023-07-09T03:36:05;23.90;96.90
20102;DHT22;10210;52.284;9.892;2023-07-09T03:38:31;23.90;97.20
20102;DHT22;10210;52.284;9.892;2023-07-09T03:40:57;23.90;97.30
20102;DHT22;10210;52.284;9.892;2023-07-09T03:43:23;23.90;97.50
20102;DHT22;10210;52.284;9.892;2023-07-09T03:45:50;23.90;97.60
20102;DHT22;10210;52.284;9.892;2023-07-09T03:48:18;23.90;97.60
20102;DHT22;10210;52.284;9.892;2023-07-09T03:50:45;23.90;97.70
20102;DHT22;10210;52.284;9.892;2023-07-09T03:53:13;23.90;97.60
20102;DHT22;10210;52.284;9.892;2023-07-09T03:55:39;23.90;97.70
20102;DHT22;10210;52.284;9.892;2023-07-09T03:58:05;23.90;97.50
20102;DHT22;10210;52.284;9.892;2023-07-09T04:00:31;23.90;97.70
20102;DHT22;10210;52.284;9.892;2023-07-09T04:02:58;23.90;97.70
20102;DHT22;10210;52.284;9.892;2023-07-09T04:05:26;23.90;97.70
20102;DHT22;10210;52.284;9.892;2023-07-09T04:07:53;23.90;97.90
20102;DHT22;10210;52.284;9.892;2023-07-09T04:10:19;23.90;97.90
20102;DHT22;10210;52.284;9.892;2023-07-09T04:12:45;23.90;98.00
20102;DHT22;10210;52.284;9.892;2023-07-09T04:15:11;23.90;98.00
20102;DHT22;10210;52.284;9.892;2023-07-09T04:17:40;23.80;98.10
20102;DHT22;10210;52.284;9.892;2023-07-09T04:20:08;23.80;98.20
20102;DHT22;10210;52.284;9.892;2023-07-09T04:22:35;23.80;98.30
20102;DHT22;10210;52.284;9.892;2023-07-09T04:25:02;23.90;98.30
20102;DHT22;10210;52.284;9.892;2023-07-09T04:27:29;23.80;98.30
20102;DHT22;10210;52.284;9.892;2023-07-09T04:29:56;23.80;98.50
20102;DHT22;10210;52.284;9.892;2023-07-09T04:32:21;23.90;98.70
20102;DHT22;10210;52.284;9.892;2023-07-09T04:34:47;23.90;98.80
20102;DHT22;10210;52.284;9.892;2023-07-09T04:37:14;23.90;99.00
20102;DHT22;10210;52.284;9.892;2023-07-09T04:39:42;23.90;99.20
20102;DHT22;10210;52.284;9.892;2023-07-09T04:42:13;24.00;99.30
20102;DHT22;10210;52.284;9.892;2023-07-09T04:44:40;24.00;99.70
20102;DHT22;10210;52.284;9.892;2023-07-09T04:47:06;24.00;99.30
20102;DHT22;10210;52.284;9.892;2023-07-09T04:49:32;24.00;99.40
20102;DHT22;10210;52.284;9.892;2023-07-09T04:51:58;24.10;99.50
20102;DHT22;10210;52.284;9.892;2023-07-09T04:54:25;24.10;99.60
20102;DHT22;10210;52.284;9.892;2023-07-09T04:56:51;24.10;99.90
20102;DHT22;10210;52.284;9.892;2023-07-09T04:59:18;24.10;99.70
20102;DHT22;10210;52.284;9.892;2023-07-09T05:01:44;24.20;99.70
20102;DHT22;10210;52.284;9.892;2023-07-09T05:04:10;24.20;99.80
20102;DHT22;10210;52.284;9.892;2023-07-09T05:06:36;24.20;99.90
20102;DHT22;10210;52.284;9.892;2023-07-09T05:09:02;24.30;99.90
20102;DHT22;10210;52.284;9.892;2023-07-09T05:11:28;24.30;99.90
20102;DHT22;10210;52.284;9.892;2023-07-09T05:13:53;24.30;99.90
20102;DHT22;10210;52.284;9.892;2023-07-09T05:16:20;24.40;99.90
20102;DHT22;10210;52.284;9.892;2023-07-09T05:18:46;24.40;99.90
20102;DHT22;10210;52.284;9.892;2023-07-09T05:21:12;24.40;99.90
20102;DHT22;10210;52.284;9.892;2023-07-09T05:23:38;24.40;99.90
20102;DHT22;10210;52.284;9.892;2023-07-09T05:26:04;24.50;99.90
20102;DHT22;10210;52.284;9.892;2023-07-09T05:28:31;24.50;99.90
20102;DHT22;10210;52.284;9.892;2023-07-09T05:31:00;24.60;99.90
20102;DHT22;10210;52.284;9.892;2023-07-09T05:33:25;24.60;99.90
20102;DHT22;10210;52.284;9.892;2023-07-09T05:35:51;24.60;99.90
20102;DHT22;10210;52.284;9.892;2023-07-09T05:38:16;24.70;99.90
20102;DHT22;10210;52.284;9.892;2023-07-09T05:40:43;24.70;99.90
20102;DHT22;10210;52.284;9.892;2023-07-09T05:43:09;24.80;99.90
20102;DHT22;10210;52.284;9.892;2023-07-09T05:45:35;24.80;99.90
20102;DHT22;10210;52.284;9.892;2023-07-09T05:48:01;24.90;99.90
20102;DHT22;10210;52.284;9.892;2023-07-09T05:50:27;24.90;99.90
20102;DHT22;10210;52.284;9.892;2023-07-09T05:52:54;24.90;99.90
20102;DHT22;10210;52.284;9.892;2023-07-09T05:55:19;24.90;99.90
20102;DHT22;10210;52.284;9.892;2023-07-09T05:57:45;25.00;99.90
20102;DHT22;10210;52.284;9.892;2023-07-09T06:00:11;25.00;99.90
20102;DHT22;10210;52.284;9.892;2023-07-09T06:02:38;25.10;99.90
20102;DHT22;10210;52.284;9.892;2023-07-09T06:05:05;25.10;99.90
20102;DHT22;10210;52.284;9.892;2023-07-09T06:07:34;25.10;99.90
20102;DHT22;10210;52.284;9.892;2023-07-09T06:10:00;25.20;99.90
20102;DHT22;10210;52.284;9.892;2023-07-09T06:12:26;25.10;99.90
20102;DHT22;10210;52.284;9.892;2023-07-09T06:14:51;25.20;99.90
20102;DHT22;10210;52.284;9.892;2023-07-09T06:17:18;25.20;99.90
20102;DHT22;10210;52.284;9.892;2023-07-09T06:19:44;25.30;99.90
20102;DHT22;10210;52.284;9.892;2023-07-09T06:22:09;25.30;99.90
20102;DHT22;10210;52.284;9.892;2023-07-09T06:24:35;25.40;99.90
20102;DHT22;10210;52.284;9.892;2023-07-09T06:27:01;25.40;99.90
20102;DHT22;10210;52.284;9.892;2023-07-09T06:29:26;25.40;99.90
20102;DHT22;10210;52.284;9.892;2023-07-09T06:31:52;25.50;99.90
20102;DHT22;10210;52.284;9.892;2023-07-09T06:34:18;25.50;99.90
20102;DHT22;10210;52.284;9.892;2023-07-09T06:36:43;25.60;99.90
20102;DHT22;10210;52.284;9.892;2023-07-09T06:39:09;25.60;99.90
20102;DHT22;10210;52.284;9.892;2023-07-09T06:41:35;25.70;99.90
20102;DHT22;10210;52.284;9.892;2023-07-09T06:44:08;25.70;99.90
20102;DHT22;10210;52.284;9.892;2023-07-09T06:46:35;25.80;99.90
20102;DHT22;10210;52.284;9.892;2023-07-09T06:49:02;25.90;99.90
20102;DHT22;10210;52.284;9.892;2023-07-09T06:51:29;25.90;99.90
20102;DHT22;10210;52.284;9.892;2023-07-09T06:53:55;26.00;99.90
20102;DHT22;10210;52.284;9.892;2023-07-09T06:56:22;26.10;99.90
20102;DHT22;10210;52.284;9.892;2023-07-09T06:58:47;26.20;99.90
20102;DHT22;10210;52.284;9.892;2023-07-09T07:01:13;26.30;99.90
20102;DHT22;10210;52.284;9.892;2023-07-09T07:03:40;26.40;99.90
20102;DHT22;10210;52.284;9.892;2023-07-09T07:06:06;26.40;99.90
20102;DHT22;10210;52.284;9.892;2023-07-09T07:08:33;26.60;99.90
20102;DHT22;10210;52.284;9.892;2023-07-09T07:11:00;26.70;99.90
20102;DHT22;10210;52.284;9.892;2023-07-09T07:13:33;27.00;99.90
20102;DHT22;10210;52.284;9.892;2023-07-09T07:16:06;27.40;99.90
20102;DHT22;10210;52.284;9.892;2023-07-09T07:18:34;27.70;99.90
20102;DHT22;10210;52.284;9.892;2023-07-09T07:21:00;28.10;99.90
20102;DHT22;10210;52.284;9.892;2023-07-09T07:23:26;28.50;99.90
20102;DHT22;10210;52.284;9.892;2023-07-09T07:25:52;28.90;99.90
20102;DHT22;10210;52.284;9.892;2023-07-09T07:28:18;29.20;99.90
20102;DHT22;10210;52.284;9.892;2023-07-09T07:30:44;29.60;99.90
20102;DHT22;10210;52.284;9.892;2023-07-09T07:33:10;29.90;99.90
20102;DHT22;10210;52.284;9.892;2023-07-09T07:35:38;30.20;99.90
20102;DHT22;10210;52.284;9.892;2023-07-09T07:38:03;30.40;99.90
20102;DHT22;10210;52.284;9.892;2023-07-09T07:40:29;30.60;99.90
20102;DHT22;10210;52.284;9.892;2023-07-09T07:42:55;30.80;99.90
20102;DHT22;10210;52.284;9.892;2023-07-09T07:45:21;31.00;99.90
20102;DHT22;10210;52.284;9.892;2023-07-09T07:47:47;31.20;99.90
20102;DHT22;10210;52.284;9.892;2023-07-09T07:50:13;31.40;99.90
20102;DHT22;10210;52.284;9.892;2023-07-09T07:52:39;31.60;99.90
20102;DHT22;10210;52.284;9.892;2023-07-09T07:55:08;31.80;99.90
20102;DHT22;10210;52.284;9.892;2023-07-09T07:57:34;32.00;99.90
20102;DHT22;10210;52.284;9.892;2023-07-09T08:00:00;32.20;99.90
20102;DHT22;10210;52.284;9.892;2023-07-09T08:02:26;32.50;99.90
20102;DHT22;10210;52.284;9.892;2023-07-09T08:04:51;32.60;99.90
20102;DHT22;10210;52.284;9.892;2023-07-09T08:07:19;32.80;99.90
20102;DHT22;10210;52.284;9.892;2023-07-09T08:09:45;33.00;99.90
20102;DHT22;10210;52.284;9.892;2023-07-09T08:12:12;33.20;99.90
20102;DHT22;10210;52.284;9.892;2023-07-09T08:14:40;33.50;99.90
20102;DHT22;10210;52.284;9.892;2023-07-09T08:17:07;33.70;99.90
20102;DHT22;10210;52.284;9.892;2023-07-09T08:19:45;33.90;99.70
20102;DHT22;10210;52.284;9.892;2023-07-09T08:22:12;34.10;98.30
20102;DHT22;10210;52.284;9.892;2023-07-09T08:24:38;34.20;99.10
20102;DHT22;10210;52.284;9.892;2023-07-09T08:27:06;34.40;99.10
20102;DHT22;10210;52.284;9.892;2023-07-09T08:29:32;34.60;98.40
20102;DHT22;10210;52.284;9.892;2023-07-09T08:31:58;34.80;98.20
20102;DHT22;10210;52.284;9.892;2023-07-09T08:34:24;34.90;98.10
20102;DHT22;10210;52.284;9.892;2023-07-09T08:36:50;35.00;97.80
20102;DHT22;10210;52.284;9.892;2023-07-09T08:39:16;35.10;97.60
20102;DHT22;10210;52.284;9.892;2023-07-09T08:42:07;35.30;97.40
20102;DHT22;10210;52.284;9.892;2023-07-09T08:45:00;35.40;95.30
20102;DHT22;10210;52.284;9.892;2023-07-09T08:50:55;35.50;95.40
20102;DHT22;10210;52.284;9.892;2023-07-09T08:53:38;35.60;95.10
20102;DHT22;10210;52.284;9.892;2023-07-09T08:56:10;35.60;95.60
20102;DHT22;10210;52.284;9.892;2023-07-09T08:58:36;35.60;95.40
20102;DHT22;10210;52.284;9.892;2023-07-09T09:01:05;35.60;94.80
20102;DHT22;10210;52.284;9.892;2023-07-09T09:03:53;35.70;94.40
20102;DHT22;10210;52.284;9.892;2023-07-09T09:06:29;35.70;94.00
20102;DHT22;10210;52.284;9.892;2023-07-09T09:09:30;35.70;94.20
20102;DHT22;10210;52.284;9.892;2023-07-09T09:12:21;35.70;94.10
20102;DHT22;10210;52.284;9.892;2023-07-09T09:14:57;35.70;94.10
20102;DHT22;10210;52.284;9.892;2023-07-09T09:17:27;35.70;93.90
20102;DHT22;10210;52.284;9.892;2023-07-09T09:19:58;35.70;94.10
20102;DHT22;10210;52.284;9.892;2023-07-09T09:22:36;35.70;93.90
20102;DHT22;10210;52.284;9.892;2023-07-09T09:27:40;35.70;93.40
20102;DHT22;10210;52.284;9.892;2023-07-09T09:30:13;35.70;93.00
20102;DHT22;10210;52.284;9.892;2023-07-09T09:35:31;35.60;93.10
20102;DHT22;10210;52.284;9.892;2023-07-09T09:38:03;35.60;92.30
20102;DHT22;10210;52.284;9.892;2023-07-09T09:40:36;35.60;92.50
20102;DHT22;10210;52.284;9.892;2023-07-09T09:43:10;35.70;92.50
20102;DHT22;10210;52.284;9.892;2023-07-09T09:45:40;35.70;91.90
20102;DHT22;10210;52.284;9.892;2023-07-09T09:48:34;35.70;91.90
20102;DHT22;10210;52.284;9.892;2023-07-09T09:50:59;35.70;91.60
20102;DHT22;10210;52.284;9.892;2023-07-09T09:53:37;35.70;91.40
20102;DHT22;10210;52.284;9.892;2023-07-09T09:56:06;35.70;91.30
20102;DHT22;10210;52.284;9.892;2023-07-09T09:58:40;35.70;91.00
20102;DHT22;10210;52.284;9.892;2023-07-09T10:01:15;35.70;91.40
20102;DHT22;10210;52.284;9.892;2023-07-09T10:03:43;35.70;91.10
20102;DHT22;10210;52.284;9.892;2023-07-09T10:06:21;35.70;91.60
20102;DHT22;10210;52.284;9.892;2023-07-09T10:09:24;35.70;91.40
20102;DHT22;10210;52.284;9.892;2023-07-09T10:17:59;35.80;91.80
20102;DHT22;10210;52.284;9.892;2023-07-09T10:23:30;35.80;91.40
20102;DHT22;10210;52.284;9.892;2023-07-09T10:26:30;35.80;91.60
20102;DHT22;10210;52.284;9.892;2023-07-09T10:41:00;35.70;92.30
20102;DHT22;10210;52.284;9.892;2023-07-09T10:43:33;35.70;92.00
20102;DHT22;10210;52.284;9.892;2023-07-09T10:46:11;35.60;92.00
20102;DHT22;10210;52.284;9.892;2023-07-09T10:48:45;35.60;91.80
20102;DHT22;10210;52.284;9.892;2023-07-09T10:51:55;35.60;92.20
20102;DHT22;10210;52.284;9.892;2023-07-09T10:54:58;35.60;92.40
20102;DHT22;10210;52.284;9.892;2023-07-09T10:57:52;35.70;92.20
20102;DHT22;10210;52.284;9.892;2023-07-09T11:00:39;35.70;92.70
20102;DHT22;10210;52.284;9.892;2023-07-09T11:06:16;35.80;92.70
20102;DHT22;10210;52.284;9.892;2023-07-09T11:08:51;35.80;92.00
20102;DHT22;10210;52.284;9.892;2023-07-09T11:11:40;35.80;91.50
20102;DHT22;10210;52.284;9.892;2023-07-09T11:14:33;35.80;91.70
20102;DHT22;10210;52.284;9.892;2023-07-09T11:17:04;35.90;92.20
20102;DHT22;10210;52.284;9.892;2023-07-09T11:19:42;35.90;91.60
20102;DHT22;10210;52.284;9.892;2023-07-09T11:22:26;35.90;91.30
20102;DHT22;10210;52.284;9.892;2023-07-09T11:25:15;35.90;91.10
20102;DHT22;10210;52.284;9.892;2023-07-09T11:28:05;35.90;91.00
20102;DHT22;10210;52.284;9.892;2023-07-09T11:30:32;35.90;90.90
20102;DHT22;10210;52.284;9.892;2023-07-09T11:33:04;35.90;91.00
20102;DHT22;10210;52.284;9.892;2023-07-09T11:35:46;36.00;91.10
20102;DHT22;10210;52.284;9.892;2023-07-09T11:38:25;36.00;92.00
20102;DHT22;10210;52.284;9.892;2023-07-09T11:40:54;36.00;91.60
20102;DHT22;10210;52.284;9.892;2023-07-09T11:43:32;36.10;91.40
20102;DHT22;10210;52.284;9.892;2023-07-09T11:46:14;36.10;91.30
20102;DHT22;10210;52.284;9.892;2023-07-09T11:48:44;36.20;91.60
20102;DHT22;10210;52.284;9.892;2023-07-09T11:51:18;36.20;91.20
20102;DHT22;10210;52.284;9.892;2023-07-09T11:53:52;36.30;91.50
20102;DHT22;10210;52.284;9.892;2023-07-09T11:56:20;36.30;91.50
20102;DHT22;10210;52.284;9.892;2023-07-09T11:58:52;36.30;91.60
20102;DHT22;10210;52.284;9.892;2023-07-09T12:01:29;36.40;91.70
20102;DHT22;10210;52.284;9.892;2023-07-09T12:04:03;36.40;91.00
20102;DHT22;10210;52.284;9.892;2023-07-09T12:06:32;36.40;91.50
20102;DHT22;10210;52.284;9.892;2023-07-09T12:08:59;36.50;91.60
20102;DHT22;10210;52.284;9.892;2023-07-09T12:11:33;36.50;91.40
20102;DHT22;10210;52.284;9.892;2023-07-09T12:14:10;36.50;91.10
20102;DHT22;10210;52.284;9.892;2023-07-09T12:16:40;36.50;90.70
20102;DHT22;10210;52.284;9.892;2023-07-09T12:19:09;36.60;91.50
20102;DHT22;10210;52.284;9.892;2023-07-09T12:21:39;36.60;91.40
20102;DHT22;10210;52.284;9.892;2023-07-09T12:24:26;36.70;91.40
20102;DHT22;10210;52.284;9.892;2023-07-09T12:26:58;36.70;91.40
20102;DHT22;10210;52.284;9.892;2023-07-09T12:29:28;36.80;91.10
20102;DHT22;10210;52.284;9.892;2023-07-09T12:31:59;36.80;91.00
20102;DHT22;10210;52.284;9.892;2023-07-09T12:34:31;36.80;91.10
20102;DHT22;10210;52.284;9.892;2023-07-09T12:36:57;36.90;91.00
20102;DHT22;10210;52.284;9.892;2023-07-09T12:39:26;36.90;90.70
20102;DHT22;10210;52.284;9.892;2023-07-09T12:41:55;36.90;89.90
20102;DHT22;10210;52.284;9.892;2023-07-09T12:44:25;36.90;89.60
20102;DHT22;10210;52.284;9.892;2023-07-09T12:46:53;37.00;88.20
20102;DHT22;10210;52.284;9.892;2023-07-09T12:51:48;37.00;88.90
20102;DHT22;10210;52.284;9.892;2023-07-09T12:54:19;37.10;88.10
20102;DHT22;10210;52.284;9.892;2023-07-09T12:56:53;37.10;87.50
20102;DHT22;10210;52.284;9.892;2023-07-09T12:59:24;37.10;87.30
20102;DHT22;10210;52.284;9.892;2023-07-09T13:04:33;37.20;86.70
20102;DHT22;10210;52.284;9.892;2023-07-09T13:07:03;37.20;86.80
20102;DHT22;10210;52.284;9.892;2023-07-09T13:09:30;37.30;87.00
20102;DHT22;10210;52.284;9.892;2023-07-09T13:11:57;37.30;87.10
20102;DHT22;10210;52.284;9.892;2023-07-09T13:14:26;37.30;86.90
20102;DHT22;10210;52.284;9.892;2023-07-09T13:17:06;37.40;86.80
20102;DHT22;10210;52.284;9.892;2023-07-09T13:19:34;37.40;86.40
20102;DHT22;10210;52.284;9.892;2023-07-09T13:22:01;37.40;87.50
20102;DHT22;10210;52.284;9.892;2023-07-09T13:24:31;37.50;86.60
20102;DHT22;10210;52.284;9.892;2023-07-09T13:27:01;37.50;86.20
20102;DHT22;10210;52.284;9.892;2023-07-09T13:29:28;37.60;86.10
20102;DHT22;10210;52.284;9.892;2023-07-09T13:31:54;37.60;86.00
20102;DHT22;10210;52.284;9.892;2023-07-09T13:34:23;37.60;86.00
20102;DHT22;10210;52.284;9.892;2023-07-09T13:36:50;37.70;85.40
20102;DHT22;10210;52.284;9.892;2023-07-09T13:39:19;37.70;86.10
20102;DHT22;10210;52.284;9.892;2023-07-09T13:41:47;37.70;85.60
20102;DHT22;10210;52.284;9.892;2023-07-09T13:44:18;37.80;85.80
20102;DHT22;10210;52.284;9.892;2023-07-09T13:46:46;37.80;85.60
20102;DHT22;10210;52.284;9.892;2023-07-09T13:49:16;37.80;85.40
20102;DHT22;10210;52.284;9.892;2023-07-09T13:51:44;37.80;85.80
20102;DHT22;10210;52.284;9.892;2023-07-09T13:54:21;37.90;86.20
20102;DHT22;10210;52.284;9.892;2023-07-09T13:56:50;37.90;84.90
20102;DHT22;10210;52.284;9.892;2023-07-09T13:59:20;37.90;85.20
20102;DHT22;10210;52.284;9.892;2023-07-09T14:01:48;38.00;85.10
20102;DHT22;10210;52.284;9.892;2023-07-09T14:04:17;38.10;85.60
20102;DHT22;10210;52.284;9.892;2023-07-09T14:06:44;38.10;85.00
20102;DHT22;10210;52.284;9.892;2023-07-09T14:09:14;38.20;85.30
20102;DHT22;10210;52.284;9.892;2023-07-09T14:11:49;38.30;85.90
20102;DHT22;10210;52.284;9.892;2023-07-09T14:14:25;38.30;84.50
20102;DHT22;10210;52.284;9.892;2023-07-09T14:16:57;38.40;84.40
20102;DHT22;10210;52.284;9.892;2023-07-09T14:19:25;38.40;85.30
20102;DHT22;10210;52.284;9.892;2023-07-09T14:21:53;38.40;85.50
20102;DHT22;10210;52.284;9.892;2023-07-09T14:24:29;38.40;85.30
20102;DHT22;10210;52.284;9.892;2023-07-09T14:26:57;38.40;84.10
20102;DHT22;10210;52.284;9.892;2023-07-09T14:29:24;38.40;85.00
20102;DHT22;10210;52.284;9.892;2023-07-09T14:31:53;38.40;84.50
20102;DHT22;10210;52.284;9.892;2023-07-09T14:34:24;38.50;84.60
20102;DHT22;10210;52.284;9.892;2023-07-09T14:36:54;38.50;84.60
20102;DHT22;10210;52.284;9.892;2023-07-09T14:39:21;38.50;83.80
20102;DHT22;10210;52.284;9.892;2023-07-09T14:41:47;38.50;84.40
20102;DHT22;10210;52.284;9.892;2023-07-09T14:46:55;38.50;84.00
20102;DHT22;10210;52.284;9.892;2023-07-09T14:49:23;38.40;83.90
20102;DHT22;10210;52.284;9.892;2023-07-09T14:51:51;38.40;84.40
20102;DHT22;10210;52.284;9.892;2023-07-09T14:54:22;38.40;84.20
20102;DHT22;10210;52.284;9.892;2023-07-09T14:56:51;38.40;84.60
20102;DHT22;10210;52.284;9.892;2023-07-09T14:59:17;38.30;84.60
20102;DHT22;10210;52.284;9.892;2023-07-09T15:01:44;38.30;84.30
20102;DHT22;10210;52.284;9.892;2023-07-09T15:06:53;38.30;84.80
20102;DHT22;10210;52.284;9.892;2023-07-09T15:09:21;38.30;83.80
20102;DHT22;10210;52.284;9.892;2023-07-09T15:11:56;38.30;84.80
20102;DHT22;10210;52.284;9.892;2023-07-09T15:14:25;38.30;84.30
20102;DHT22;10210;52.284;9.892;2023-07-09T15:16:52;38.20;84.30
20102;DHT22;10210;52.284;9.892;2023-07-09T15:19:21;38.20;84.60
20102;DHT22;10210;52.284;9.892;2023-07-09T15:21:49;38.30;84.30
20102;DHT22;10210;52.284;9.892;2023-07-09T15:24:21;38.30;84.60
20102;DHT22;10210;52.284;9.892;2023-07-09T15:26:53;38.30;85.00
20102;DHT22;10210;52.284;9.892;2023-07-09T15:29:21;38.30;85.10
20102;DHT22;10210;52.284;9.892;2023-07-09T15:31:48;38.30;85.10
20102;DHT22;10210;52.284;9.892;2023-07-09T15:34:16;38.20;84.70
20102;DHT22;10210;52.284;9.892;2023-07-09T15:36:48;38.20;84.10
20102;DHT22;10210;52.284;9.892;2023-07-09T15:39:19;38.20;84.90
20102;DHT22;10210;52.284;9.892;2023-07-09T15:41:46;38.20;84.20
20102;DHT22;10210;52.284;9.892;2023-07-09T15:44:14;38.20;84.40
20102;DHT22;10210;52.284;9.892;2023-07-09T15:46:47;38.20;84.80
20102;DHT22;10210;52.284;9.892;2023-07-09T15:49:16;38.20;85.20
20102;DHT22;10210;52.284;9.892;2023-07-09T15:51:43;38.30;85.00
20102;DHT22;10210;52.284;9.892;2023-07-09T15:54:14;38.30;85.30
20102;DHT22;10210;52.284;9.892;2023-07-09T15:56:42;38.30;84.80
20102;DHT22;10210;52.284;9.892;2023-07-09T15:59:26;38.30;84.70
20102;DHT22;10210;52.284;9.892;2023-07-09T16:01:54;38.30;83.40
20102;DHT22;10210;52.284;9.892;2023-07-09T16:04:20;38.20;83.80
20102;DHT22;10210;52.284;9.892;2023-07-09T16:06:46;38.20;84.00
20102;DHT22;10210;52.284;9.892;2023-07-09T16:09:12;38.10;84.30
20102;DHT22;10210;52.284;9.892;2023-07-09T16:11:42;38.10;85.20
20102;DHT22;10210;52.284;9.892;2023-07-09T16:14:26;38.00;85.60
20102;DHT22;10210;52.284;9.892;2023-07-09T16:16:58;37.90;86.00
20102;DHT22;10210;52.284;9.892;2023-07-09T16:19:47;37.90;86.30
20102;DHT22;10210;52.284;9.892;2023-07-09T16:22:14;37.80;86.20
20102;DHT22;10210;52.284;9.892;2023-07-09T16:24:41;37.80;86.70
20102;DHT22;10210;52.284;9.892;2023-07-09T16:27:12;37.70;87.10
20102;DHT22;10210;52.284;9.892;2023-07-09T16:29:41;37.60;87.70